Wiconisco, Pennsylvania
Current Conditions -  °F | °C
As of 6:58 PM on Saturday 25 Oct 2014 (Local Time) from KMUI Reporting Station
Scattered Clouds Scattered Clouds  
Wind Chill: 61°   Ceiling: Unl
Heat Index: 61°   Visibility: 10mi
Dew Point: 50°   Wind: 2mph
Humidity: 67%   Direction: 10°N
Pressure: 29.68"   Gusts: NA
Location:  40.57°N, 76.69°W
Report Text: KMUI 252258Z AUTO 01002KT 10SM SCT060 16/10 A2968 RMK AO2 SLP053 T01600099 $
Loading
Personal Weather Stations






























Interactive Weather Map
Tropical Storm Tracking
New forecast layout! Learn more

10-Day Weather Forecast

Advertisements
Track Severe Weather on mobile